createdAt,value
2023-06-30T00:01:50.934Z,86041.50
2023-06-30T00:04:18.289Z,86044.78
2023-06-30T00:06:45.600Z,86041.81
2023-06-30T00:09:12.131Z,86044.88
2023-06-30T00:11:39.366Z,86040.75
2023-06-30T00:14:05.869Z,86039.16
2023-06-30T00:16:33.145Z,86039.59
2023-06-30T00:18:59.892Z,86042.06
2023-06-30T00:21:26.425Z,86045.66
2023-06-30T00:23:52.958Z,86038.88
2023-06-30T00:26:19.563Z,86044.59
2023-06-30T00:28:46.703Z,86046.00
2023-06-30T00:31:13.267Z,86040.72
2023-06-30T00:33:39.868Z,86048.66
2023-06-30T00:36:06.507Z,86048.97
2023-06-30T00:38:33.101Z,86047.97
2023-06-30T00:40:59.716Z,86053.22
2023-06-30T00:43:26.273Z,86048.34
2023-06-30T00:45:52.760Z,86041.94
2023-06-30T00:48:19.552Z,86049.84
2023-06-30T00:50:46.305Z,86049.09
2023-06-30T00:53:14.074Z,86046.69
2023-06-30T00:55:45.540Z,86050.72
2023-06-30T00:58:12.396Z,86048.78
2023-06-30T01:00:38.952Z,86050.63
2023-06-30T01:03:28.993Z,86044.81
2023-06-30T01:05:56.665Z,86044.59
2023-06-30T01:08:52.406Z,86049.81
2023-06-30T01:11:19.008Z,86042.72
2023-06-30T01:13:45.580Z,86047.41
2023-06-30T01:16:12.133Z,86044.25
2023-06-30T01:18:38.660Z,86040.91
2023-06-30T01:21:06.099Z,86044.75
2023-06-30T01:23:32.626Z,86044.22
2023-06-30T01:26:00.483Z,86042.41
2023-06-30T01:28:28.986Z,86040.13
2023-06-30T01:30:56.037Z,86041.16
2023-06-30T01:33:22.784Z,86035.66
2023-06-30T01:35:49.485Z,86040.66
2023-06-30T01:38:16.519Z,86025.63
2023-06-30T01:40:43.096Z,86023.97
2023-06-30T01:43:09.636Z,86022.44
2023-06-30T01:45:36.299Z,86023.44
2023-06-30T01:48:02.882Z,86023.03
2023-06-30T01:50:31.163Z,86020.00
2023-06-30T01:52:58.150Z,86018.31
2023-06-30T01:55:24.701Z,86016.09
2023-06-30T01:57:51.281Z,86016.34
2023-06-30T02:00:17.933Z,86019.31
2023-06-30T02:02:44.781Z,86011.63
2023-06-30T02:05:12.263Z,86010.19
2023-06-30T02:07:38.852Z,86009.78
2023-06-30T02:10:05.747Z,86007.53
2023-06-30T02:12:32.286Z,86019.47
2023-06-30T02:14:59.179Z,86015.25
2023-06-30T02:17:29.450Z,86014.88
2023-06-30T02:19:56.032Z,86017.34
2023-06-30T02:22:22.719Z,86018.56
2023-06-30T02:24:49.295Z,86018.22
2023-06-30T02:27:17.980Z,86026.38
2023-06-30T02:29:44.886Z,86014.91
2023-06-30T02:32:11.462Z,86014.16
2023-06-30T02:34:38.018Z,86016.47
2023-06-30T02:37:04.769Z,86021.06
2023-06-30T02:39:31.362Z,86024.94
2023-06-30T02:41:57.989Z,86021.03
2023-06-30T02:44:24.541Z,86025.69
2023-06-30T02:46:51.659Z,86018.72
2023-06-30T02:49:18.220Z,86023.75
2023-06-30T02:51:44.764Z,86022.31
2023-06-30T02:54:11.230Z,86017.91
2023-06-30T02:56:37.771Z,86023.72
2023-06-30T02:59:04.239Z,86013.72
2023-06-30T03:01:30.827Z,86020.34
2023-06-30T03:03:57.586Z,86024.88
2023-06-30T03:06:24.798Z,86022.47
2023-06-30T03:08:51.418Z,86020.22
2023-06-30T03:11:18.005Z,86025.44
2023-06-30T03:13:45.738Z,86025.97
2023-06-30T03:16:13.525Z,86022.19
2023-06-30T03:18:40.667Z,86028.94
2023-06-30T03:21:07.190Z,86021.66
2023-06-30T03:23:33.742Z,86017.75
2023-06-30T03:26:00.281Z,86027.09
2023-06-30T03:28:26.766Z,86019.63
2023-06-30T03:30:53.390Z,86015.25
2023-06-30T03:33:19.906Z,86014.94
2023-06-30T03:35:48.401Z,86018.66
2023-06-30T03:38:15.102Z,86013.66
2023-06-30T03:40:41.667Z,86024.91
2023-06-30T03:43:08.704Z,86021.16
2023-06-30T03:45:35.252Z,86014.09
2023-06-30T03:48:01.850Z,86010.88
2023-06-30T03:50:28.518Z,86017.84
2023-06-30T03:52:55.049Z,86016.75
2023-06-30T03:55:21.641Z,86018.50
2023-06-30T03:57:48.224Z,86019.00
2023-06-30T04:00:15.034Z,86018.03
2023-06-30T04:02:41.752Z,86019.94
2023-06-30T04:05:08.741Z,86016.78
2023-06-30T04:07:35.882Z,86020.72
2023-06-30T04:10:02.486Z,86016.78
2023-06-30T04:12:29.071Z,86016.78
2023-06-30T04:14:55.661Z,86025.88
2023-06-30T04:17:22.270Z,86021.09
2023-06-30T04:19:48.830Z,86017.97
2023-06-30T04:22:15.349Z,86022.59
2023-06-30T04:24:41.826Z,86032.00
2023-06-30T04:27:08.379Z,86027.63
2023-06-30T04:29:34.911Z,86026.78
2023-06-30T04:32:01.582Z,86022.31
2023-06-30T04:34:28.173Z,86027.56
2023-06-30T04:36:54.782Z,86031.44
2023-06-30T04:39:21.449Z,86028.69
2023-06-30T04:41:48.366Z,86025.00
2023-06-30T04:44:15.098Z,86031.91
2023-06-30T04:46:41.825Z,86030.84
2023-06-30T04:49:08.575Z,86032.69
2023-06-30T04:51:36.544Z,86034.03
2023-06-30T04:54:03.190Z,86028.19
2023-06-30T04:56:29.797Z,86033.47
2023-06-30T04:58:56.346Z,86033.13
2023-06-30T05:01:23.022Z,86037.69
2023-06-30T05:03:49.634Z,86036.75
2023-06-30T05:06:16.369Z,86030.72
2023-06-30T05:08:42.912Z,86035.63
2023-06-30T05:11:09.523Z,86038.63
2023-06-30T05:13:36.116Z,86034.09
2023-06-30T05:16:02.886Z,86029.78
2023-06-30T05:18:29.509Z,86034.34
2023-06-30T05:20:56.540Z,86036.31
2023-06-30T05:23:24.872Z,86032.59
2023-06-30T05:25:51.488Z,86032.75
2023-06-30T05:28:18.111Z,86041.91
2023-06-30T05:30:44.726Z,86043.63
2023-06-30T05:33:11.245Z,86031.97
2023-06-30T05:35:37.836Z,86040.88
2023-06-30T05:38:04.432Z,86041.88
2023-06-30T05:40:30.971Z,86047.22
2023-06-30T05:42:57.797Z,86041.03
2023-06-30T05:45:24.413Z,86040.25
2023-06-30T05:47:51.063Z,86041.13
2023-06-30T05:50:18.413Z,86040.97
2023-06-30T05:52:45.109Z,86041.31
2023-06-30T05:55:11.673Z,86041.16
2023-06-30T05:57:38.291Z,86038.63
2023-06-30T06:00:06.050Z,86048.97
2023-06-30T06:02:32.704Z,86036.44
2023-06-30T06:04:59.658Z,86045.25
2023-06-30T06:07:26.397Z,86033.59
2023-06-30T06:09:53.000Z,86031.56
2023-06-30T06:12:19.613Z,86038.69
2023-06-30T06:14:46.153Z,86037.72
2023-06-30T06:17:12.867Z,86034.50
2023-06-30T06:19:39.447Z,86041.13
2023-06-30T06:22:06.171Z,86038.59
2023-06-30T06:24:33.629Z,86038.41
2023-06-30T06:27:00.337Z,86043.78
2023-06-30T06:29:26.886Z,86051.22
2023-06-30T06:31:53.522Z,86039.69
2023-06-30T06:34:20.218Z,86042.94
2023-06-30T06:36:47.169Z,86043.41
2023-06-30T06:39:13.811Z,86041.28
2023-06-30T06:41:40.469Z,86043.78
2023-06-30T06:44:07.016Z,86037.47
2023-06-30T06:46:33.898Z,86044.81
2023-06-30T06:49:00.688Z,86045.97
2023-06-30T06:51:27.294Z,86045.09
2023-06-30T06:53:54.767Z,86042.34
2023-06-30T06:56:21.370Z,86039.97
2023-06-30T06:58:47.946Z,86033.41
2023-06-30T07:01:14.490Z,86050.22
2023-06-30T07:03:41.099Z,86043.53
2023-06-30T07:06:07.722Z,86046.75
2023-06-30T07:08:36.444Z,86034.22
2023-06-30T07:11:04.339Z,86041.44
2023-06-30T07:13:31.026Z,86039.09
2023-06-30T07:15:57.658Z,86041.75
2023-06-30T07:18:24.347Z,86038.16
2023-06-30T07:20:54.190Z,86043.25
2023-06-30T07:23:20.837Z,86035.47
2023-06-30T07:25:47.933Z,86039.59
2023-06-30T07:28:15.013Z,86036.97
2023-06-30T07:30:44.354Z,86040.19
2023-06-30T07:33:12.013Z,86042.69
2023-06-30T07:35:38.651Z,86045.94
2023-06-30T07:38:05.479Z,86042.28
2023-06-30T07:40:45.943Z,86047.34
2023-06-30T07:43:17.633Z,86049.81
2023-06-30T07:45:44.666Z,86046.97
2023-06-30T07:48:11.653Z,86038.84
2023-06-30T07:50:38.354Z,86038.91
2023-06-30T07:53:09.419Z,86045.41
2023-06-30T07:55:36.044Z,86054.38
2023-06-30T07:58:02.585Z,86054.47
2023-06-30T08:00:30.412Z,86042.56
2023-06-30T08:02:57.366Z,86045.75
2023-06-30T08:05:24.332Z,86042.03
2023-06-30T08:07:51.892Z,86049.50
2023-06-30T08:10:19.043Z,86033.06
2023-06-30T08:12:45.615Z,86041.94
2023-06-30T08:15:12.141Z,86043.19
2023-06-30T08:17:53.003Z,86045.75
2023-06-30T08:20:25.657Z,86034.97
2023-06-30T08:22:52.693Z,86035.91
2023-06-30T08:25:25.448Z,86037.59
2023-06-30T08:27:52.655Z,86041.63
2023-06-30T08:30:22.046Z,86034.66
2023-06-30T08:32:49.607Z,86024.63
2023-06-30T08:35:16.477Z,86026.16
2023-06-30T08:37:43.699Z,86026.84
2023-06-30T08:40:10.428Z,86031.84
2023-06-30T08:42:37.502Z,86024.19
2023-06-30T08:45:04.365Z,86027.66
2023-06-30T08:47:32.918Z,86027.25
2023-06-30T08:49:59.750Z,86031.06
2023-06-30T08:52:26.481Z,86025.41
2023-06-30T08:54:53.093Z,86022.59
2023-06-30T08:57:19.632Z,86025.03
2023-06-30T08:59:46.176Z,86020.44
2023-06-30T09:02:12.902Z,86028.53
2023-06-30T09:04:39.857Z,86029.16
2023-06-30T09:07:07.541Z,86024.63
2023-06-30T09:09:36.774Z,86021.66
2023-06-30T09:12:03.450Z,86025.53
2023-06-30T09:14:34.664Z,86019.75
2023-06-30T09:17:01.543Z,86012.41
2023-06-30T09:19:28.084Z,86007.06
2023-06-30T09:21:54.848Z,86008.25
2023-06-30T09:24:21.380Z,86011.06
2023-06-30T09:26:47.969Z,86011.13
2023-06-30T09:29:14.595Z,86007.22
2023-06-30T09:31:41.463Z,85997.50
2023-06-30T09:34:11.761Z,85992.97
2023-06-30T09:36:38.943Z,85997.25
2023-06-30T09:39:09.193Z,85988.44
2023-06-30T09:41:36.186Z,85992.75
2023-06-30T09:44:02.983Z,85987.88
2023-06-30T09:46:32.724Z,85995.66
2023-06-30T09:48:59.663Z,85995.75
2023-06-30T09:51:26.205Z,85994.81
2023-06-30T09:53:55.538Z,85994.53
2023-06-30T09:56:25.400Z,85990.41
2023-06-30T09:58:52.550Z,85988.84
2023-06-30T10:01:20.709Z,85999.06
2023-06-30T10:03:50.707Z,85982.97
2023-06-30T10:08:45.320Z,85984.47
2023-06-30T10:11:11.853Z,85982.50
2023-06-30T10:13:38.961Z,85980.31
2023-06-30T10:16:05.779Z,85989.47
2023-06-30T10:18:32.330Z,85985.25
2023-06-30T10:20:58.887Z,85985.13
2023-06-30T10:23:25.556Z,85984.91
2023-06-30T10:25:52.399Z,85983.28
2023-06-30T10:28:19.304Z,85980.38
2023-06-30T10:30:45.916Z,85977.47
2023-06-30T10:33:12.509Z,85973.72
2023-06-30T10:35:39.288Z,85975.84
2023-06-30T10:38:05.900Z,85968.03
2023-06-30T10:40:32.621Z,85971.19
2023-06-30T10:42:59.414Z,85964.00
2023-06-30T10:45:30.229Z,85966.84
2023-06-30T10:47:56.831Z,85964.53
2023-06-30T10:50:23.593Z,85962.97
2023-06-30T10:52:53.729Z,85956.28
2023-06-30T10:55:20.668Z,85952.16
2023-06-30T10:57:49.869Z,85951.66
2023-06-30T11:00:16.584Z,85947.72
2023-06-30T11:02:50.131Z,85941.50
2023-06-30T11:05:20.934Z,85932.91
2023-06-30T11:07:48.559Z,85935.97
2023-06-30T11:10:18.435Z,85932.19
2023-06-30T11:12:52.117Z,85933.47
2023-06-30T11:15:36.814Z,85931.13
2023-06-30T11:18:04.153Z,85919.84
2023-06-30T11:20:31.275Z,85930.59
2023-06-30T11:23:02.118Z,85927.84
2023-06-30T11:25:29.344Z,85927.66
2023-06-30T11:27:56.220Z,85918.63
2023-06-30T11:30:22.865Z,85920.63
2023-06-30T11:32:49.681Z,85919.47
2023-06-30T11:35:20.026Z,85911.06
2023-06-30T11:37:52.836Z,85906.44
2023-06-30T11:40:19.483Z,85912.50
2023-06-30T11:42:46.044Z,85909.44
2023-06-30T11:45:18.198Z,85912.00
2023-06-30T11:47:48.133Z,85921.34
2023-06-30T11:50:15.445Z,85923.09
2023-06-30T11:52:42.127Z,85921.13
2023-06-30T11:55:09.465Z,85914.06
2023-06-30T11:57:37.595Z,85911.16
2023-06-30T12:00:09.859Z,85915.09
2023-06-30T12:02:36.530Z,85911.53
2023-06-30T12:05:05.761Z,85903.84
2023-06-30T12:07:32.739Z,85900.16
2023-06-30T12:10:02.591Z,85900.22
2023-06-30T12:12:29.236Z,85893.19
2023-06-30T12:14:55.896Z,85894.19
2023-06-30T12:17:22.501Z,85897.00
2023-06-30T12:19:49.038Z,85896.38
2023-06-30T12:22:15.579Z,85896.75
2023-06-30T12:24:43.469Z,85888.56
2023-06-30T12:27:10.119Z,85887.72
2023-06-30T12:29:37.034Z,85880.00
2023-06-30T12:32:16.332Z,85882.66
2023-06-30T12:34:43.079Z,85881.81
2023-06-30T12:37:09.754Z,85885.13
2023-06-30T12:39:36.292Z,85875.28
2023-06-30T12:42:02.888Z,85873.59
2023-06-30T12:44:29.436Z,85874.03
2023-06-30T12:47:06.631Z,85869.25
2023-06-30T12:49:34.388Z,85871.78
2023-06-30T12:52:03.521Z,85867.00
2023-06-30T12:54:30.545Z,85860.56
2023-06-30T12:56:57.138Z,85865.19
2023-06-30T12:59:23.813Z,85859.59
2023-06-30T13:01:50.377Z,85865.69
2023-06-30T13:04:16.940Z,85867.41
2023-06-30T13:06:43.505Z,85861.97
2023-06-30T13:09:10.057Z,85861.78
2023-06-30T13:11:36.653Z,85868.41
2023-06-30T13:14:03.771Z,85864.91
2023-06-30T13:16:30.362Z,85867.94
2023-06-30T13:18:58.652Z,85873.03
2023-06-30T13:21:25.258Z,85870.00
2023-06-30T13:23:51.855Z,85868.38
2023-06-30T13:26:18.439Z,85858.94
2023-06-30T13:28:44.956Z,85861.34
2023-06-30T13:31:11.585Z,85859.91
2023-06-30T13:33:38.167Z,85858.34
2023-06-30T13:36:05.154Z,85855.56
2023-06-30T13:38:31.741Z,85847.19
2023-06-30T13:40:58.288Z,85848.25
2023-06-30T13:43:24.946Z,85852.19
2023-06-30T13:45:51.816Z,85846.41
2023-06-30T13:48:18.409Z,85842.66
2023-06-30T13:50:45.026Z,85845.41
2023-06-30T13:53:11.668Z,85841.63
2023-06-30T13:55:38.257Z,85838.09
2023-06-30T13:58:04.894Z,85848.00
2023-06-30T14:00:31.591Z,85839.53
2023-06-30T14:02:58.208Z,85837.41
2023-06-30T14:05:25.065Z,85839.38
2023-06-30T14:07:51.767Z,85837.72
2023-06-30T14:10:18.344Z,85846.97
2023-06-30T14:12:44.940Z,85839.97
2023-06-30T14:15:11.579Z,85840.78
2023-06-30T14:17:38.158Z,85838.25
2023-06-30T14:20:04.894Z,85839.94
2023-06-30T14:22:31.424Z,85833.28
2023-06-30T14:24:57.918Z,85841.97
2023-06-30T14:27:24.519Z,85840.44
2023-06-30T14:29:51.177Z,85831.25
2023-06-30T14:32:21.300Z,85829.50
2023-06-30T14:34:49.608Z,85834.03
2023-06-30T14:37:16.177Z,85826.88
2023-06-30T14:39:42.754Z,85832.16
2023-06-30T14:42:16.119Z,85828.38
2023-06-30T14:44:49.738Z,85828.25
2023-06-30T14:47:16.296Z,85835.47
2023-06-30T14:49:42.809Z,85833.97
2023-06-30T14:52:09.425Z,85825.63
2023-06-30T14:54:36.058Z,85828.00
2023-06-30T14:57:02.598Z,85827.84
2023-06-30T14:59:29.133Z,85830.44
2023-06-30T15:01:55.690Z,85834.16
2023-06-30T15:04:22.281Z,85837.09
2023-06-30T15:06:48.845Z,85835.50
2023-06-30T15:09:15.327Z,85836.00
2023-06-30T15:11:41.956Z,85831.56
2023-06-30T15:14:08.525Z,85842.28
2023-06-30T15:16:35.164Z,85832.47
2023-06-30T15:19:01.870Z,85825.47
2023-06-30T15:21:28.371Z,85829.44
2023-06-30T15:23:54.947Z,85827.22
2023-06-30T15:26:21.444Z,85838.69
2023-06-30T15:28:48.001Z,85831.09
2023-06-30T15:31:14.539Z,85824.84
2023-06-30T15:33:41.274Z,85825.38
2023-06-30T15:36:07.879Z,85826.56
2023-06-30T15:38:34.480Z,85820.88
2023-06-30T15:41:21.258Z,85823.34
2023-06-30T15:43:49.118Z,85827.78
2023-06-30T15:46:16.116Z,85828.16
2023-06-30T15:48:42.875Z,85827.00
2023-06-30T15:51:09.484Z,85823.25
2023-06-30T15:53:36.025Z,85817.72
2023-06-30T15:56:02.839Z,85822.84
2023-06-30T15:58:29.355Z,85824.84
2023-06-30T16:00:56.057Z,85826.75
2023-06-30T16:03:22.734Z,85816.44
2023-06-30T16:05:49.727Z,85819.81
2023-06-30T16:08:16.654Z,85808.59
2023-06-30T16:10:43.160Z,85816.63
2023-06-30T16:13:12.852Z,85810.41
2023-06-30T16:15:40.127Z,85811.31
2023-06-30T16:18:06.679Z,85813.50
2023-06-30T16:20:33.317Z,85812.38
2023-06-30T16:22:59.815Z,85811.91
2023-06-30T16:25:26.379Z,85812.66
2023-06-30T16:27:52.929Z,85813.06
2023-06-30T16:30:23.232Z,85817.06
2023-06-30T16:32:50.449Z,85814.88
2023-06-30T16:35:17.147Z,85814.03
2023-06-30T16:37:43.782Z,85811.94
2023-06-30T16:40:13.484Z,85805.59
2023-06-30T16:42:40.650Z,85818.34
2023-06-30T16:45:07.381Z,85815.63
2023-06-30T16:47:34.986Z,85819.38
2023-06-30T16:50:01.582Z,85824.78
2023-06-30T16:52:28.144Z,85823.94
2023-06-30T16:54:54.678Z,85823.28
2023-06-30T16:57:21.230Z,85823.25
2023-06-30T16:59:47.714Z,85821.75
2023-06-30T17:02:14.306Z,85821.41
2023-06-30T17:04:40.942Z,85827.41
2023-06-30T17:07:08.759Z,85816.09
2023-06-30T17:09:35.264Z,85829.06
2023-06-30T17:12:01.999Z,85820.63
2023-06-30T17:14:28.589Z,85830.03
2023-06-30T17:16:55.250Z,85827.78
2023-06-30T17:19:21.768Z,85817.28
2023-06-30T17:21:48.680Z,85822.75
2023-06-30T17:24:15.267Z,85821.84
2023-06-30T17:26:41.808Z,85820.50
2023-06-30T17:29:08.351Z,85826.34
2023-06-30T17:31:34.966Z,85828.44
2023-06-30T17:34:01.703Z,85826.75
2023-06-30T17:36:28.233Z,85824.72
2023-06-30T17:38:55.303Z,85826.13
2023-06-30T17:41:21.886Z,85823.34
2023-06-30T17:43:48.410Z,85819.16
2023-06-30T17:46:15.148Z,85825.81
2023-06-30T17:48:41.710Z,85828.69
2023-06-30T17:51:08.353Z,85825.25
2023-06-30T17:53:34.988Z,85831.25
2023-06-30T17:56:01.532Z,85830.25
2023-06-30T17:58:28.133Z,85831.28
2023-06-30T18:00:54.674Z,85831.84
2023-06-30T18:03:21.258Z,85833.22
2023-06-30T18:05:48.041Z,85828.19
2023-06-30T18:08:14.808Z,85819.28
2023-06-30T18:10:42.075Z,85832.16
2023-06-30T18:13:08.705Z,85827.31
2023-06-30T18:15:35.258Z,85822.31
2023-06-30T18:18:01.825Z,85822.06
2023-06-30T18:20:28.449Z,85820.78
2023-06-30T18:22:55.022Z,85828.16
2023-06-30T18:25:21.606Z,85828.72
2023-06-30T18:27:48.103Z,85826.28
2023-06-30T18:30:14.871Z,85829.03
2023-06-30T18:32:41.594Z,85822.31
2023-06-30T18:35:08.859Z,85827.75
2023-06-30T18:37:35.918Z,85828.84
2023-06-30T18:40:02.476Z,85831.47
2023-06-30T18:42:28.971Z,85833.97
2023-06-30T18:44:57.330Z,85834.56
2023-06-30T18:47:24.206Z,85834.53
2023-06-30T18:49:50.796Z,85837.66
2023-06-30T18:52:17.389Z,85837.72
2023-06-30T18:54:46.008Z,85838.88
2023-06-30T18:57:12.616Z,85850.19
2023-06-30T18:59:39.149Z,85845.31
2023-06-30T19:02:05.708Z,85845.88
2023-06-30T19:04:32.348Z,85851.97
2023-06-30T19:06:58.982Z,85860.66
2023-06-30T19:09:25.611Z,85862.38
2023-06-30T19:11:52.152Z,85863.75
2023-06-30T19:14:18.707Z,85865.94
2023-06-30T19:16:45.261Z,85862.97
2023-06-30T19:19:11.746Z,85878.28
2023-06-30T19:21:38.498Z,85875.53
2023-06-30T19:24:05.113Z,85873.34
2023-06-30T19:26:31.661Z,85876.59
2023-06-30T19:28:58.377Z,85879.81
2023-06-30T19:31:27.986Z,85880.34
2023-06-30T19:33:55.199Z,85877.56
2023-06-30T19:36:21.820Z,85876.72
2023-06-30T19:38:48.321Z,85868.28
2023-06-30T19:41:14.980Z,85866.13
2023-06-30T19:43:41.618Z,85865.50
2023-06-30T19:46:08.232Z,85863.31
2023-06-30T19:48:34.767Z,85867.88
2023-06-30T19:51:01.304Z,85856.28
2023-06-30T19:53:27.816Z,85868.88
2023-06-30T19:55:54.375Z,85868.44
2023-06-30T19:58:21.014Z,85857.19
2023-06-30T20:00:47.622Z,85856.91
2023-06-30T20:03:14.363Z,85860.75
2023-06-30T20:05:40.956Z,85861.97
2023-06-30T20:08:07.458Z,85861.44
2023-06-30T20:10:34.092Z,85870.91
2023-06-30T20:13:02.292Z,85873.47
2023-06-30T20:15:29.076Z,85871.38
2023-06-30T20:17:55.592Z,85863.19
2023-06-30T20:20:22.191Z,85866.72
2023-06-30T20:22:48.889Z,85862.97
2023-06-30T20:25:15.728Z,85864.88
2023-06-30T20:27:43.792Z,85862.59
2023-06-30T20:30:12.610Z,85865.72
2023-06-30T20:32:39.298Z,85866.31
2023-06-30T20:35:06.071Z,85867.06
2023-06-30T20:37:32.683Z,85868.13
2023-06-30T20:39:59.339Z,85867.38
2023-06-30T20:42:25.939Z,85869.88
2023-06-30T20:44:52.494Z,85865.91
2023-06-30T20:47:19.159Z,85859.47
2023-06-30T20:49:45.835Z,85863.44
2023-06-30T20:52:12.479Z,85871.47
2023-06-30T20:54:39.128Z,85873.13
2023-06-30T20:57:05.768Z,85870.06
2023-06-30T20:59:32.298Z,85873.06
2023-06-30T21:01:59.048Z,85866.91
2023-06-30T21:04:25.726Z,85868.38
2023-06-30T21:06:52.430Z,85860.19
2023-06-30T21:09:18.999Z,85858.34
2023-06-30T21:11:45.573Z,85859.47
2023-06-30T21:14:12.136Z,85862.53
2023-06-30T21:16:39.151Z,85867.00
2023-06-30T21:19:05.913Z,85862.94
2023-06-30T21:21:32.492Z,85857.28
2023-06-30T21:23:59.078Z,85860.56
2023-06-30T21:26:25.695Z,85859.38
2023-06-30T21:28:52.364Z,85857.50
2023-06-30T21:31:18.964Z,85846.31
2023-06-30T21:33:45.562Z,85846.31
2023-06-30T21:36:14.650Z,85849.56
2023-06-30T21:38:42.019Z,85841.09
2023-06-30T21:41:08.687Z,85846.50
2023-06-30T21:43:35.288Z,85837.44
2023-06-30T21:46:11.513Z,85846.72
2023-06-30T21:48:37.994Z,85843.13
2023-06-30T21:51:04.528Z,85840.16
2023-06-30T21:53:31.066Z,85846.59
2023-06-30T21:55:57.819Z,85841.66
2023-06-30T21:58:27.862Z,85845.66
2023-06-30T22:00:55.460Z,85846.47
2023-06-30T22:03:25.050Z,85847.19
2023-06-30T22:05:52.383Z,85850.88
2023-06-30T22:08:19.811Z,85860.28
2023-06-30T22:10:46.801Z,85845.84
2023-06-30T22:13:13.710Z,85852.38
2023-06-30T22:15:40.280Z,85852.91
2023-06-30T22:18:07.503Z,85846.53
2023-06-30T22:20:34.131Z,85858.00
2023-06-30T22:23:00.693Z,85853.72
2023-06-30T22:25:27.192Z,85851.53
2023-06-30T22:27:56.507Z,85848.41
2023-06-30T22:30:24.067Z,85852.00
2023-06-30T22:32:50.753Z,85852.44
2023-06-30T22:35:17.433Z,85844.56
2023-06-30T22:37:43.930Z,85847.09
2023-06-30T22:40:10.716Z,85849.69
2023-06-30T22:42:37.282Z,85852.91
2023-06-30T22:45:04.803Z,85847.25
2023-06-30T22:47:31.466Z,85846.75
2023-06-30T22:49:58.015Z,85847.44
2023-06-30T22:52:24.620Z,85845.84
2023-06-30T22:54:51.159Z,85847.50
2023-06-30T22:57:17.976Z,85840.50
2023-06-30T22:59:44.694Z,85843.06
2023-06-30T23:02:11.223Z,85851.06
2023-06-30T23:04:38.116Z,85842.47
2023-06-30T23:07:04.821Z,85850.59
2023-06-30T23:09:31.403Z,85840.16
2023-06-30T23:11:58.004Z,85843.44
2023-06-30T23:14:24.542Z,85846.97
2023-06-30T23:16:51.099Z,85850.31
2023-06-30T23:19:17.767Z,85835.81
2023-06-30T23:21:46.974Z,85847.06
2023-06-30T23:24:13.570Z,85840.63
2023-06-30T23:26:40.676Z,85842.59
2023-06-30T23:29:10.406Z,85842.94
2023-06-30T23:31:39.057Z,85840.72
2023-06-30T23:34:05.744Z,85842.47
2023-06-30T23:36:32.553Z,85842.31
2023-06-30T23:38:59.843Z,85840.75
2023-06-30T23:41:26.887Z,85831.75
2023-06-30T23:43:53.633Z,85834.69
2023-06-30T23:46:20.808Z,85821.88
2023-06-30T23:48:47.568Z,85825.72
2023-06-30T23:51:14.344Z,85827.72
2023-06-30T23:53:40.825Z,85826.28
2023-06-30T23:56:07.413Z,85830.63
2023-06-30T23:58:33.955Z,85812.66
